Time;durP1;ratioP1;P1;durP2;ratioP2;P2;SDS_P1;SDS_P2;PMS_P1;PMS_P2;Temp;Humidity;BMP_temperature;BMP_pressure;BME280_temperature;BME280_humidity;BME280_pressure;Samples;Min_cycle;Max_cycle;Signal;HPM_P1;HPM_P2
2023/04/24 00:01:58;;;;;;;6.67;4.60;;;12.00;99.90;;;;;;5185746;28;20446;-44
2023/04/24 00:04:29;;;;;;;6.03;5.20;;;12.00;99.90;;;;;;5178181;28;20176;-43
2023/04/24 00:07:00;;;;;;;4.20;3.93;;;12.00;99.90;;;;;;5182733;28;20883;-44
2023/04/24 00:09:31;;;;;;;4.10;3.80;;;12.00;99.90;;;;;;5198029;28;20470;-43
2023/04/24 00:12:04;;;;;;;4.70;4.13;;;12.00;99.90;;;;;;5185481;28;20712;-43
2023/04/24 00:14:35;;;;;;;4.70;4.30;;;12.00;99.90;;;;;;5181771;28;20180;-44
2023/04/24 00:17:05;;;;;;;3.87;3.67;;;11.90;99.90;;;;;;5181566;28;20439;-42
2023/04/24 00:19:36;;;;;;;9.13;4.10;;;11.90;99.90;;;;;;5190337;28;20180;-44
2023/04/24 00:22:07;;;;;;;4.47;4.17;;;11.90;99.90;;;;;;5197185;28;20184;-44
2023/04/24 00:24:38;;;;;;;6.90;4.43;;;11.80;99.90;;;;;;5195763;28;20255;-43
2023/04/24 00:27:08;;;;;;;5.50;3.73;;;11.80;99.90;;;;;;5194645;28;20458;-45
2023/04/24 00:29:39;;;;;;;4.40;4.00;;;11.80;99.90;;;;;;5195120;28;20191;-44
2023/04/24 00:32:10;;;;;;;6.20;4.13;;;11.80;99.90;;;;;;5192472;28;20173;-44
2023/04/24 00:34:41;;;;;;;4.73;4.43;;;11.80;99.90;;;;;;5191017;28;20181;-44
2023/04/24 00:37:11;;;;;;;4.20;4.00;;;11.80;99.90;;;;;;5186719;28;20322;-43
2023/04/24 00:39:42;;;;;;;4.83;4.43;;;11.70;99.90;;;;;;5188033;28;20534;-45
2023/04/24 00:42:13;;;;;;;4.20;3.90;;;11.70;99.90;;;;;;5188387;28;20195;-43
2023/04/24 00:44:44;;;;;;;4.30;3.90;;;11.70;99.90;;;;;;5182406;28;20562;-44
2023/04/24 00:47:15;;;;;;;4.17;3.87;;;11.70;99.90;;;;;;5187051;28;20335;-44
2023/04/24 00:49:45;;;;;;;4.00;3.70;;;11.60;99.90;;;;;;5188586;28;20180;-44
2023/04/24 00:52:17;;;;;;;4.53;4.13;;;11.60;99.90;;;;;;5183801;28;20521;-44
2023/04/24 00:54:48;;;;;;;4.90;4.50;;;11.60;99.90;;;;;;5190682;28;20191;-45
2023/04/24 00:57:19;;;;;;;4.57;4.33;;;11.60;99.90;;;;;;5188730;28;20455;-45
2023/04/24 00:59:50;;;;;;;5.23;4.83;;;11.60;99.90;;;;;;5190883;28;20645;-43
2023/04/24 01:02:22;;;;;;;4.70;4.40;;;11.50;99.90;;;;;;5189378;28;20493;-43
2023/04/24 01:04:53;;;;;;;4.43;4.13;;;11.50;99.90;;;;;;5187502;28;20522;-43
2023/04/24 01:07:24;;;;;;;4.70;4.30;;;11.50;99.90;;;;;;5186644;28;20669;-43
2023/04/24 01:09:55;;;;;;;4.37;4.17;;;11.50;99.90;;;;;;5180371;28;20304;-42
2023/04/24 01:12:26;;;;;;;4.13;3.70;;;11.50;99.90;;;;;;5185898;28;20510;-44
2023/04/24 01:14:57;;;;;;;4.40;4.20;;;11.50;99.90;;;;;;5185903;28;20181;-44
2023/04/24 01:17:27;;;;;;;4.63;4.23;;;11.50;99.90;;;;;;5185729;28;20216;-45
2023/04/24 01:19:59;;;;;;;4.17;3.87;;;11.40;99.90;;;;;;5187336;28;20196;-43
2023/04/24 01:22:30;;;;;;;5.80;5.30;;;11.40;99.90;;;;;;5171914;28;20192;-46
2023/04/24 01:25:01;;;;;;;6.70;5.00;;;11.40;99.90;;;;;;5189144;28;20509;-44
2023/04/24 01:27:32;;;;;;;5.00;4.60;;;11.40;99.90;;;;;;5191349;28;20234;-43
2023/04/24 01:30:04;;;;;;;5.80;4.53;;;11.40;99.90;;;;;;5189305;28;20427;-42
2023/04/24 01:32:36;;;;;;;3.97;3.67;;;11.40;99.90;;;;;;5186949;28;20683;-43
2023/04/24 01:35:07;;;;;;;4.50;4.20;;;11.40;99.90;;;;;;5185906;28;20449;-43
2023/04/24 01:37:38;;;;;;;4.40;4.20;;;11.40;99.90;;;;;;5192315;28;20515;-43
2023/04/24 01:40:09;;;;;;;4.60;4.30;;;11.40;99.90;;;;;;5194629;28;20497;-43
2023/04/24 01:42:41;;;;;;;4.30;4.00;;;11.40;99.90;;;;;;5191243;28;20267;-45
2023/04/24 01:45:13;;;;;;;5.63;5.00;;;11.40;99.90;;;;;;5186189;28;20950;-42
2023/04/24 01:47:44;;;;;;;4.73;4.33;;;11.40;99.90;;;;;;5167051;28;20478;-44
2023/04/24 01:50:15;;;;;;;6.00;4.47;;;11.40;99.90;;;;;;5185549;28;20943;-43
2023/04/24 01:52:46;;;;;;;4.80;4.40;;;11.40;99.90;;;;;;5184378;28;20466;-45
2023/04/24 01:55:17;;;;;;;6.03;4.40;;;11.40;99.90;;;;;;5185271;28;20463;-42
2023/04/24 01:57:48;;;;;;;6.10;5.23;;;11.40;99.90;;;;;;5185657;28;20220;-43
2023/04/24 02:00:19;;;;;;;4.87;4.57;;;11.40;99.90;;;;;;5169297;28;20188;-43
2023/04/24 02:02:49;;;;;;;5.53;4.83;;;11.40;99.90;;;;;;5187159;28;20498;-42
2023/04/24 02:05:20;;;;;;;5.23;4.50;;;11.40;99.90;;;;;;5186260;28;20306;-43
2023/04/24 02:07:51;;;;;;;4.73;4.43;;;11.40;99.90;;;;;;5186407;28;20216;-44
2023/04/24 02:10:21;;;;;;;4.47;4.20;;;11.30;99.90;;;;;;5185452;28;20196;-43
2023/04/24 02:12:52;;;;;;;4.10;3.90;;;11.30;99.90;;;;;;5188714;28;20193;-43
2023/04/24 02:15:23;;;;;;;4.97;4.57;;;11.30;99.90;;;;;;5181799;28;20204;-43
2023/04/24 02:17:53;;;;;;;4.67;4.40;;;11.30;99.90;;;;;;5194656;28;20266;-43
2023/04/24 02:20:24;;;;;;;4.80;4.50;;;11.30;99.90;;;;;;5194863;28;20200;-43
2023/04/24 02:22:55;;;;;;;6.70;6.10;;;11.40;99.90;;;;;;5172755;28;20250;-43
2023/04/24 02:25:25;;;;;;;5.93;5.37;;;11.40;99.90;;;;;;5186305;28;20176;-44
2023/04/24 02:27:56;;;;;;;5.50;5.10;;;11.30;99.90;;;;;;5183818;28;20231;-43
2023/04/24 02:30:27;;;;;;;5.00;4.70;;;11.30;99.90;;;;;;5182889;28;20199;-43
2023/04/24 02:32:57;;;;;;;5.67;5.27;;;11.30;99.90;;;;;;5180452;28;20302;-43
2023/04/24 02:35:28;;;;;;;5.90;5.50;;;11.30;99.90;;;;;;5190300;28;20235;-44
2023/04/24 02:37:59;;;;;;;4.63;4.33;;;11.30;99.90;;;;;;5185383;28;20220;-44
2023/04/24 02:40:30;;;;;;;6.10;5.60;;;11.30;99.90;;;;;;5182806;28;20719;-44
2023/04/24 02:43:00;;;;;;;7.27;5.37;;;11.30;99.90;;;;;;5186242;28;20195;-43
2023/04/24 02:45:31;;;;;;;6.97;5.37;;;11.30;99.90;;;;;;5187396;28;20639;-47
2023/04/24 02:48:01;;;;;;;7.83;4.80;;;11.40;99.90;;;;;;5168140;28;20243;-44
2023/04/24 02:50:33;;;;;;;5.83;5.43;;;11.50;99.90;;;;;;5185870;28;20206;-43
2023/04/24 02:53:04;;;;;;;8.27;5.00;;;11.40;99.90;;;;;;5186199;28;20183;-44
2023/04/24 02:55:35;;;;;;;9.80;5.93;;;11.50;99.90;;;;;;5183121;28;20439;-43
2023/04/24 02:58:06;;;;;;;7.30;5.57;;;11.50;99.90;;;;;;5185551;28;20200;-44
2023/04/24 03:00:36;;;;;;;5.80;5.27;;;11.50;99.90;;;;;;5190530;28;20433;-44
2023/04/24 03:03:07;;;;;;;5.20;4.90;;;11.50;99.90;;;;;;5190118;28;20270;-43
2023/04/24 03:05:37;;;;;;;5.80;5.40;;;11.50;99.90;;;;;;5186980;28;20234;-42
2023/04/24 03:08:08;;;;;;;5.60;5.10;;;11.60;99.90;;;;;;5186280;28;20219;-42
2023/04/24 03:10:39;;;;;;;5.43;4.97;;;11.70;99.90;;;;;;5186983;28;20197;-44
2023/04/24 03:13:09;;;;;;;5.80;5.30;;;11.70;99.90;;;;;;5188055;28;20181;-47
2023/04/24 03:15:40;;;;;;;5.80;5.00;;;11.70;99.90;;;;;;5187355;28;20267;-44
2023/04/24 03:18:10;;;;;;;4.77;4.37;;;11.70;99.90;;;;;;5167693;28;20200;-43
2023/04/24 03:20:41;;;;;;;5.70;5.27;;;11.70;99.90;;;;;;5178973;28;20202;-45
2023/04/24 03:23:12;;;;;;;13.43;5.47;;;11.90;99.90;;;;;;5182114;28;20219;-47
2023/04/24 03:25:42;;;;;;;5.27;4.77;;;11.80;99.90;;;;;;5179516;28;20549;-44
2023/04/24 03:28:13;;;;;;;5.30;4.63;;;11.90;99.90;;;;;;5180388;28;20219;-45
2023/04/24 03:30:43;;;;;;;5.40;5.00;;;11.90;99.90;;;;;;5183970;28;20203;-45
2023/04/24 03:33:14;;;;;;;5.50;4.93;;;11.90;99.90;;;;;;5180603;28;20192;-45
2023/04/24 03:35:45;;;;;;;6.83;4.87;;;11.90;99.90;;;;;;5180250;28;20553;-45
2023/04/24 03:38:15;;;;;;;5.63;5.23;;;11.90;99.90;;;;;;5180582;28;20317;-46
2023/04/24 03:40:46;;;;;;;5.50;5.10;;;12.00;99.90;;;;;;5178701;28;20199;-43
2023/04/24 03:43:17;;;;;;;5.47;4.97;;;12.10;99.90;;;;;;5183782;28;20219;-45
2023/04/24 03:45:47;;;;;;;5.53;5.00;;;12.40;99.90;;;;;;5185977;28;20672;-45
2023/04/24 03:48:18;;;;;;;8.00;5.10;;;12.40;99.90;;;;;;5183136;28;20215;-45
2023/04/24 03:50:48;;;;;;;5.43;5.00;;;12.30;99.90;;;;;;5184868;28;20176;-45
2023/04/24 03:53:19;;;;;;;5.17;4.87;;;12.20;99.90;;;;;;5186083;28;20226;-44
2023/04/24 03:55:50;;;;;;;4.93;4.53;;;12.10;99.90;;;;;;5185664;28;20267;-44
2023/04/24 03:58:20;;;;;;;4.60;4.40;;;12.30;99.90;;;;;;5186583;28;20547;-44
2023/04/24 04:00:51;;;;;;;7.10;5.13;;;12.20;99.90;;;;;;5187421;28;20204;-46
2023/04/24 04:03:22;;;;;;;4.67;4.37;;;12.40;99.90;;;;;;5185785;28;20186;-45
2023/04/24 04:05:54;;;;;;;4.70;4.40;;;12.30;99.90;;;;;;5169961;28;20604;-44
2023/04/24 04:08:24;;;;;;;6.83;5.40;;;12.20;99.90;;;;;;5184538;28;20216;-46
2023/04/24 04:10:55;;;;;;;5.30;4.90;;;12.20;99.90;;;;;;5184537;28;20449;-46
2023/04/24 04:13:26;;;;;;;3.93;3.80;;;12.20;99.90;;;;;;5186403;28;20641;-45
2023/04/24 04:15:57;;;;;;;6.27;5.10;;;12.40;99.90;;;;;;5186504;28;20473;-46
2023/04/24 04:18:28;;;;;;;5.70;5.30;;;12.40;99.90;;;;;;5187180;28;20208;-46
2023/04/24 04:20:58;;;;;;;4.30;4.10;;;12.30;99.90;;;;;;5183188;28;20216;-46
2023/04/24 04:23:29;;;;;;;6.13;4.83;;;12.30;99.90;;;;;;5185074;28;20521;-46
2023/04/24 04:26:00;;;;;;;7.30;5.20;;;12.20;99.90;;;;;;5180376;28;20662;-46
2023/04/24 04:28:32;;;;;;;6.97;5.17;;;12.40;99.90;;;;;;5186622;28;20677;-45
2023/04/24 04:31:03;;;;;;;4.83;4.63;;;12.50;99.90;;;;;;5185382;28;20802;-44
2023/04/24 04:33:34;;;;;;;4.23;3.93;;;12.50;99.90;;;;;;5189182;28;20518;-45
2023/04/24 04:36:04;;;;;;;4.83;4.43;;;12.40;99.90;;;;;;5186011;28;20514;-45
2023/04/24 04:38:36;;;;;;;5.07;4.67;;;12.30;99.90;;;;;;5185378;28;20210;-45
2023/04/24 04:41:07;;;;;;;5.20;4.80;;;12.30;99.90;;;;;;5185384;28;20591;-45
2023/04/24 04:43:40;;;;;;;5.00;4.50;;;12.30;99.90;;;;;;5182473;28;20448;-45
2023/04/24 04:46:11;;;;;;;4.60;4.30;;;12.40;99.90;;;;;;5180361;28;20272;-44
2023/04/24 04:48:41;;;;;;;5.27;4.77;;;12.60;99.90;;;;;;5182155;28;20472;-44
2023/04/24 04:51:12;;;;;;;4.80;4.50;;;12.60;99.90;;;;;;5183858;28;20188;-45
2023/04/24 04:53:43;;;;;;;5.10;4.70;;;12.70;99.90;;;;;;5184465;28;20206;-45
2023/04/24 04:56:13;;;;;;;6.73;4.33;;;12.70;99.90;;;;;;5184334;28;20533;-46
2023/04/24 04:58:44;;;;;;;7.23;5.30;;;12.70;99.90;;;;;;5182996;28;20213;-45
2023/04/24 05:01:15;;;;;;;4.63;4.30;;;12.80;99.90;;;;;;5182596;28;20634;-43
2023/04/24 05:03:46;;;;;;;5.07;4.67;;;12.70;99.90;;;;;;5172329;28;20773;-44
2023/04/24 05:06:16;;;;;;;4.37;4.07;;;12.70;99.90;;;;;;5182087;28;20176;-45
2023/04/24 05:08:48;;;;;;;4.67;4.27;;;12.70;99.90;;;;;;5183349;28;20220;-45
2023/04/24 05:11:19;;;;;;;5.90;4.03;;;12.70;99.90;;;;;;5174804;28;20176;-46
2023/04/24 05:13:49;;;;;;;4.20;3.80;;;12.90;99.90;;;;;;5181601;28;20450;-46
2023/04/24 05:16:20;;;;;;;4.40;4.10;;;13.00;99.90;;;;;;5181718;28;20573;-45
2023/04/24 05:18:50;;;;;;;3.33;3.13;;;13.10;99.90;;;;;;5167250;28;20200;-45
2023/04/24 05:21:21;;;;;;;3.73;3.43;;;13.30;99.90;;;;;;5184083;28;20177;-46
2023/04/24 05:23:52;;;;;;;3.57;3.37;;;13.40;99.90;;;;;;5184473;28;20242;-46
2023/04/24 05:26:23;;;;;;;7.43;3.70;;;13.60;99.90;;;;;;5183224;28;20194;-46
2023/04/24 05:28:54;;;;;;;2.93;2.83;;;13.80;99.90;;;;;;5183972;28;20246;-46
2023/04/24 05:31:25;;;;;;;5.03;3.67;;;14.10;99.90;;;;;;5182926;28;20443;-46
2023/04/24 05:33:55;;;;;;;2.90;2.80;;;15.30;99.90;;;;;;5188995;28;20707;-44
2023/04/24 05:36:27;;;;;;;2.80;2.70;;;16.30;99.90;;;;;;5186340;28;20530;-44
2023/04/24 05:38:57;;;;;;;2.47;2.27;;;17.80;99.90;;;;;;5184901;28;20223;-43
2023/04/24 05:41:28;;;;;;;2.10;2.00;;;19.40;99.90;;;;;;5183696;28;20447;-44
2023/04/24 05:43:58;;;;;;;2.37;2.17;;;19.50;99.90;;;;;;5185020;28;20187;-44
2023/04/24 05:46:29;;;;;;;2.43;2.33;;;19.40;99.90;;;;;;5166391;28;20215;-43
2023/04/24 05:48:59;;;;;;;2.00;2.00;;;20.30;99.70;;;;;;5189467;28;20208;-45
2023/04/24 05:51:31;;;;;;;3.13;2.47;;;21.60;91.70;;;;;;5184737;28;20191;-42
2023/04/24 05:54:03;;;;;;;2.20;2.10;;;21.70;79.10;;;;;;5187708;28;20180;-46
2023/04/24 05:56:33;;;;;;;2.93;1.63;;;21.10;76.80;;;;;;5182975;28;20804;-45
2023/04/24 05:59:04;;;;;;;2.17;2.07;;;21.10;78.70;;;;;;5181676;28;20471;-44
2023/04/24 06:01:35;;;;;;;1.80;1.70;;;21.50;76.10;;;;;;5180018;28;20185;-45
2023/04/24 06:04:06;;;;;;;1.83;1.83;;;21.40;74.10;;;;;;5182331;28;20603;-49
2023/04/24 06:06:37;;;;;;;1.50;1.50;;;21.70;72.30;;;;;;5182763;28;20467;-39
2023/04/24 06:09:07;;;;;;;4.73;1.90;;;22.60;68.90;;;;;;5180178;28;20231;-46
2023/04/24 06:11:38;;;;;;;2.80;1.23;;;23.90;61.10;;;;;;5182900;28;20181;-46
2023/04/24 06:14:09;;;;;;;1.40;1.40;;;23.90;58.90;;;;;;5183003;28;20181;-48
2023/04/24 06:16:43;;;;;;;1.63;1.50;;;24.40;58.20;;;;;;5183039;28;20186;-46
2023/04/24 06:19:13;;;;;;;5.17;1.90;;;25.20;54.90;;;;;;5181011;28;20451;-48
2023/04/24 06:21:44;;;;;;;2.00;1.90;;;25.90;53.30;;;;;;5179566;28;20453;-50
2023/04/24 06:24:18;;;;;;;5.13;1.60;;;26.70;49.60;;;;;;5173605;28;20184;-48
2023/04/24 06:26:48;;;;;;;8.30;1.83;;;26.50;48.60;;;;;;5182184;28;20613;-48
2023/04/24 06:29:19;;;;;;;1.47;1.37;;;25.50;49.90;;;;;;5176851;28;20547;-49
2023/04/24 06:31:50;;;;;;;1.60;1.50;;;24.50;51.80;;;;;;5176005;28;20188;-48
2023/04/24 06:34:20;;;;;;;1.50;1.50;;;24.50;52.80;;;;;;5176136;28;20257;-48
2023/04/24 06:36:51;;;;;;;1.70;1.67;;;25.50;50.90;;;;;;5180674;28;20195;-46
2023/04/24 06:39:21;;;;;;;1.93;1.50;;;25.80;48.70;;;;;;5174963;28;20223;-48
2023/04/24 06:41:52;;;;;;;1.50;1.40;;;25.50;48.90;;;;;;5182396;28;20203;-47
2023/04/24 06:44:23;;;;;;;1.27;1.27;;;26.70;47.70;;;;;;5178534;28;20184;-51
2023/04/24 06:46:53;;;;;;;1.43;1.43;;;28.50;45.30;;;;;;5160045;28;20231;-49
2023/04/24 06:49:24;;;;;;;1.07;1.07;;;30.20;41.10;;;;;;5181091;28;20274;-48
2023/04/24 06:51:54;;;;;;;2.23;1.60;;;31.30;39.00;;;;;;5178872;28;20211;-47
2023/04/24 06:54:25;;;;;;;1.10;1.10;;;31.80;37.40;;;;;;5176100;28;20532;-48
2023/04/24 06:56:57;;;;;;;1.37;1.23;;;32.70;35.50;;;;;;5181235;28;20198;-48
2023/04/24 06:59:28;;;;;;;1.70;1.23;;;32.30;34.90;;;;;;5173118;28;20215;-47
2023/04/24 07:01:58;;;;;;;4.73;1.53;;;32.80;34.20;;;;;;5170928;28;20970;-47
2023/04/24 07:04:29;;;;;;;0.90;0.90;;;32.50;34.50;;;;;;5172530;28;20199;-48
2023/04/24 07:07:00;;;;;;;2.17;1.30;;;32.40;33.00;;;;;;5171777;28;20260;-48
2023/04/24 07:09:31;;;;;;;0.83;0.83;;;32.00;34.10;;;;;;5172562;28;20785;-47
2023/04/24 07:12:02;;;;;;;2.50;0.90;;;32.00;33.90;;;;;;5178276;28;20712;-49
2023/04/24 07:14:33;;;;;;;3.17;0.90;;;30.50;34.50;;;;;;5182612;28;20747;-48
2023/04/24 07:17:05;;;;;;;1.23;1.13;;;29.70;36.70;;;;;;5183411;28;20303;-47
2023/04/24 07:19:35;;;;;;;0.80;0.80;;;30.40;34.80;;;;;;5177256;28;20208;-46
2023/04/24 07:22:06;;;;;;;3.17;0.67;;;31.20;33.70;;;;;;5167962;28;21189;-48
2023/04/24 07:24:37;;;;;;;0.97;0.97;;;31.70;33.10;;;;;;5174324;28;20645;-47
2023/04/24 07:27:08;;;;;;;0.77;0.77;;;31.90;32.30;;;;;;5171119;28;20199;-48
2023/04/24 07:29:39;;;;;;;1.60;1.60;;;30.90;33.40;;;;;;5176701;28;20249;-48
2023/04/24 07:32:10;;;;;;;1.33;0.43;;;31.10;33.50;;;;;;5170300;28;20180;-49
2023/04/24 07:34:41;;;;;;;0.80;0.80;;;30.70;32.00;;;;;;5179458;28;20506;-49
2023/04/24 07:37:12;;;;;;;0.50;0.50;;;29.00;33.30;;;;;;5175746;28;20318;-49
2023/04/24 07:39:42;;;;;;;0.60;0.60;;;27.70;35.60;;;;;;5169517;28;20199;-47
2023/04/24 07:42:13;;;;;;;1.90;0.50;;;26.60;37.60;;;;;;5174517;28;20184;-47
2023/04/24 07:44:44;;;;;;;0.60;0.60;;;25.60;39.50;;;;;;5173675;28;20214;-50
2023/04/24 07:47:15;;;;;;;0.73;0.73;;;25.60;39.30;;;;;;5175957;28;20330;-47
2023/04/24 07:49:46;;;;;;;0.70;0.70;;;26.30;38.70;;;;;;5173863;28;20191;-48
2023/04/24 07:52:17;;;;;;;0.50;0.50;;;27.90;36.00;;;;;;5160840;28;20443;-48
2023/04/24 07:54:47;;;;;;;0.50;0.50;;;29.20;33.20;;;;;;5158429;28;20215;-47
2023/04/24 07:57:18;;;;;;;0.60;0.60;;;29.30;32.70;;;;;;5175657;28;20179;-48
2023/04/24 07:59:49;;;;;;;0.73;0.57;;;29.60;31.70;;;;;;5171709;28;20227;-48
2023/04/24 08:02:19;;;;;;;0.77;0.77;;;28.90;32.60;;;;;;5173761;28;20211;-47
2023/04/24 08:04:50;;;;;;;0.57;0.57;;;29.00;33.40;;;;;;5172436;28;20222;-48
2023/04/24 08:07:21;;;;;;;1.13;1.03;;;30.10;32.80;;;;;;5178760;28;20203;-48
2023/04/24 08:09:52;;;;;;;0.50;0.50;;;31.40;31.40;;;;;;5174101;28;20611;-48
2023/04/24 08:12:22;;;;;;;0.43;0.43;;;32.80;30.00;;;;;;5174808;28;20480;-47
2023/04/24 08:14:53;;;;;;;0.40;0.40;;;33.00;29.20;;;;;;5189641;28;20172;-49
2023/04/24 08:17:24;;;;;;;0.67;0.60;;;32.90;29.30;;;;;;5176523;28;20208;-48
2023/04/24 08:20:01;;;;;;;0.43;0.43;;;32.50;29.30;;;;;;5177250;28;20650;-48
2023/04/24 08:22:31;;;;;;;0.80;0.80;;;32.00;30.00;;;;;;5176536;28;20192;-47
2023/04/24 08:25:02;;;;;;;2.63;0.87;;;31.20;30.60;;;;;;5173358;28;20438;-48
2023/04/24 08:27:33;;;;;;;5.03;0.87;;;29.70;31.40;;;;;;5179045;28;20306;-46
2023/04/24 08:30:05;;;;;;;1.07;1.00;;;28.00;34.10;;;;;;5175593;28;20188;-47
2023/04/24 08:32:36;;;;;;;0.80;0.80;;;26.60;36.30;;;;;;5173649;28;20634;-50
2023/04/24 08:35:09;;;;;;;0.50;0.50;;;25.50;37.00;;;;;;5159895;28;20453;-47
2023/04/24 08:37:39;;;;;;;0.90;0.90;;;24.70;38.50;;;;;;5173449;28;20581;-48
2023/04/24 08:40:15;;;;;;;0.40;0.40;;;24.60;38.20;;;;;;5176907;28;20901;-48
2023/04/24 08:42:45;;;;;;;0.47;0.47;;;23.90;39.50;;;;;;5179893;28;20563;-48
2023/04/24 08:45:16;;;;;;;0.90;0.73;;;23.90;40.10;;;;;;5178698;28;20486;-48
2023/04/24 08:47:49;;;;;;;0.47;0.47;;;23.40;39.50;;;;;;5174168;28;20216;-48
2023/04/24 08:50:20;;;;;;;2.10;0.93;;;22.90;40.30;;;;;;5172301;28;20284;-48
2023/04/24 08:52:53;;;;;;;0.50;0.50;;;22.00;41.80;;;;;;5182884;28;20443;-47
2023/04/24 08:55:25;;;;;;;0.60;0.60;;;21.90;43.00;;;;;;5175423;28;20952;-48
2023/04/24 08:57:56;;;;;;;1.10;1.10;;;22.00;42.60;;;;;;5175855;28;20494;-48
2023/04/24 09:00:27;;;;;;;1.60;0.90;;;22.00;42.20;;;;;;5176868;28;21159;-48
2023/04/24 09:03:00;;;;;;;1.73;0.93;;;22.10;42.10;;;;;;5178162;28;20435;-48
2023/04/24 09:05:31;;;;;;;0.80;0.80;;;22.00;42.60;;;;;;5176899;28;20497;-49
2023/04/24 09:08:03;;;;;;;1.30;1.20;;;22.00;42.60;;;;;;5173764;28;20475;-46
2023/04/24 09:10:35;;;;;;;3.07;0.47;;;21.70;42.50;;;;;;5183324;28;20223;-47
2023/04/24 09:13:06;;;;;;;0.90;0.87;;;21.40;42.00;;;;;;5176728;28;20466;-45
2023/04/24 09:15:39;;;;;;;1.17;0.93;;;21.20;42.80;;;;;;5175867;28;20443;-51
2023/04/24 09:18:10;;;;;;;2.00;0.50;;;21.20;43.20;;;;;;5188226;28;20204;-48
2023/04/24 09:21:01;;;;;;;0.53;0.40;;;21.20;42.80;;;;;;5180099;28;21165;-50
2023/04/24 09:23:32;;;;;;;0.70;0.63;;;21.20;42.70;;;;;;5177947;28;20230;-48
2023/04/24 09:26:06;;;;;;;1.83;1.03;;;21.10;42.90;;;;;;5177763;28;20474;-47
2023/04/24 09:28:39;;;;;;;0.50;0.50;;;20.70;43.30;;;;;;5178002;28;20544;-47
2023/04/24 09:31:18;;;;;;;4.60;1.20;;;20.10;44.90;;;;;;5178722;28;20439;-47
2023/04/24 09:34:00;;;;;;;1.00;0.90;;;19.60;46.20;;;;;;5176167;28;20542;-47
2023/04/24 09:36:33;;;;;;;0.60;0.60;;;19.50;47.40;;;;;;5172802;28;20435;-48
2023/04/24 09:39:05;;;;;;;0.70;0.70;;;19.50;47.90;;;;;;5191407;28;20471;-47
2023/04/24 09:41:45;;;;;;;0.70;0.70;;;19.70;48.30;;;;;;5175676;28;20438;-48
2023/04/24 09:44:17;;;;;;;1.07;1.07;;;19.80;48.30;;;;;;5176936;28;20531;-47
2023/04/24 09:46:56;;;;;;;1.33;0.90;;;19.90;49.00;;;;;;5178450;28;20513;-48
2023/04/24 09:49:29;;;;;;;1.27;0.90;;;20.20;49.40;;;;;;5183486;28;20532;-48
2023/04/24 09:52:07;;;;;;;1.80;0.73;;;20.50;49.80;;;;;;5175691;28;20467;-48
2023/04/24 09:54:39;;;;;;;0.60;0.60;;;20.50;49.90;;;;;;5179652;28;20467;-48
2023/04/24 09:57:10;;;;;;;1.03;0.80;;;20.00;50.80;;;;;;5181084;28;20435;-48
2023/04/24 09:59:46;;;;;;;1.47;0.80;;;19.80;51.60;;;;;;5178999;28;21370;-47
2023/04/24 10:02:20;;;;;;;0.70;0.70;;;19.70;51.80;;;;;;5175030;28;20194;-49
2023/04/24 10:04:58;;;;;;;0.90;0.90;;;19.90;51.20;;;;;;5177829;28;20442;-47
2023/04/24 10:07:32;;;;;;;1.17;0.73;;;20.10;50.60;;;;;;5176746;28;20468;-47
2023/04/24 10:10:03;;;;;;;1.03;1.00;;;20.60;50.20;;;;;;5175795;28;20549;-48
2023/04/24 10:12:34;;;;;;;0.77;0.63;;;21.00;49.20;;;;;;5179506;28;20466;-46
2023/04/24 10:15:06;;;;;;;0.80;0.80;;;21.30;49.10;;;;;;5175843;28;20181;-48
2023/04/24 10:17:37;;;;;;;0.80;0.80;;;21.60;47.80;;;;;;5177171;28;20192;-47
2023/04/24 10:20:08;;;;;;;5.50;0.83;;;21.40;47.90;;;;;;5175975;28;20433;-48
2023/04/24 10:22:39;;;;;;;1.43;1.43;;;21.70;47.80;;;;;;5175650;28;20612;-48
2023/04/24 10:25:10;;;;;;;0.90;0.80;;;22.00;47.40;;;;;;5180766;28;20623;-47
2023/04/24 10:27:41;;;;;;;0.80;0.80;;;22.00;46.50;;;;;;5178808;28;20629;-46
2023/04/24 10:30:12;;;;;;;0.53;0.53;;;22.00;47.00;;;;;;5178722;28;20185;-46
2023/04/24 10:32:43;;;;;;;0.67;0.67;;;22.60;46.60;;;;;;5182323;28;20219;-47
2023/04/24 10:35:15;;;;;;;2.83;0.97;;;22.60;45.90;;;;;;5178636;28;20440;-47
2023/04/24 10:37:50;;;;;;;0.70;0.70;;;22.10;46.30;;;;;;5183350;28;20697;-47
2023/04/24 10:40:35;;;;;;;0.87;0.83;;;21.80;46.90;;;;;;5180669;28;20466;-48
2023/04/24 10:43:09;;;;;;;2.43;1.17;;;21.50;47.00;;;;;;5173598;28;20446;-46
2023/04/24 10:45:40;;;;;;;1.07;0.97;;;21.00;48.30;;;;;;5177704;28;20439;-46
2023/04/24 10:48:12;;;;;;;6.50;5.83;;;20.60;48.60;;;;;;5177483;28;20467;-47
2023/04/24 10:50:43;;;;;;;2.10;1.30;;;20.30;49.30;;;;;;5181606;28;20303;-46
2023/04/24 10:53:27;;;;;;;1.20;0.80;;;20.10;49.60;;;;;;5178552;28;20907;-47
2023/04/24 10:55:58;;;;;;;1.27;1.10;;;20.00;50.20;;;;;;5180893;28;20556;-49
2023/04/24 10:58:44;;;;;;;1.57;1.47;;;19.80;50.20;;;;;;5182970;28;20462;-46
2023/04/24 11:01:29;;;;;;;1.23;0.90;;;19.80;50.60;;;;;;5177775;28;20449;-48
2023/04/24 11:04:02;;;;;;;21.33;1.90;;;19.80;50.00;;;;;;5175080;28;20457;-46
2023/04/24 11:06:35;;;;;;;1.10;0.90;;;19.80;50.10;;;;;;5179817;28;20801;-47
2023/04/24 11:09:12;;;;;;;6.10;0.90;;;19.90;49.70;;;;;;5182658;28;20478;-47
2023/04/24 11:11:46;;;;;;;0.60;0.60;;;19.90;49.90;;;;;;5196031;28;20541;-49
2023/04/24 11:14:17;;;;;;;1.23;1.13;;;20.30;49.80;;;;;;5175819;28;20431;-47
2023/04/24 11:16:54;;;;;;;2.63;0.97;;;20.60;49.30;;;;;;5181773;28;20558;-46
2023/04/24 11:19:26;;;;;;;1.20;1.20;;;21.00;48.90;;;;;;5187563;28;20211;-49
2023/04/24 11:22:16;;;;;;;2.13;1.07;;;21.30;48.20;;;;;;5168105;28;20447;-48
2023/04/24 11:24:47;;;;;;;1.80;1.10;;;21.80;47.00;;;;;;5165335;28;20505;-49
2023/04/24 11:27:22;;;;;;;0.70;0.70;;;22.00;46.40;;;;;;5179406;28;20463;-49
2023/04/24 11:29:55;;;;;;;2.00;0.90;;;21.90;46.50;;;;;;5177514;28;20243;-48
2023/04/24 11:32:42;;;;;;;4.10;0.80;;;21.50;47.10;;;;;;5180657;28;20972;-48
2023/04/24 11:35:18;;;;;;;1.77;0.73;;;21.20;47.60;;;;;;5178594;28;21029;-48
2023/04/24 11:37:51;;;;;;;4.17;0.90;;;21.00;48.20;;;;;;5174331;28;20806;-47
2023/04/24 11:40:23;;;;;;;1.20;1.20;;;20.80;48.50;;;;;;5175550;28;20442;-47
2023/04/24 11:42:57;;;;;;;0.83;0.83;;;20.60;48.80;;;;;;5172528;28;20435;-46
2023/04/24 11:45:30;;;;;;;1.07;0.90;;;20.10;48.40;;;;;;5169910;28;20438;-47
2023/04/24 11:48:03;;;;;;;0.90;0.70;;;19.70;49.50;;;;;;5175482;28;20466;-47
2023/04/24 11:50:34;;;;;;;2.10;0.70;;;19.30;51.70;;;;;;5160862;28;20487;-46
2023/04/24 11:53:04;;;;;;;0.53;0.53;;;19.00;53.30;;;;;;5183178;28;20436;-47
2023/04/24 11:55:35;;;;;;;0.43;0.43;;;18.90;53.80;;;;;;5174176;28;20700;-47
2023/04/24 11:58:06;;;;;;;5.80;1.13;;;19.20;53.90;;;;;;5176116;28;20204;-47
2023/04/24 12:00:38;;;;;;;0.63;0.63;;;19.20;54.00;;;;;;5173710;28;20177;-48
2023/04/24 12:03:11;;;;;;;0.90;0.77;;;19.00;54.40;;;;;;5178040;28;20520;-46
2023/04/24 12:05:43;;;;;;;5.93;1.10;;;19.10;54.70;;;;;;5175831;28;20983;-48
2023/04/24 12:08:29;;;;;;;2.47;1.80;;;19.20;55.40;;;;;;5173348;28;20557;-47
2023/04/24 12:11:06;;;;;;;0.63;0.60;;;19.30;55.80;;;;;;5175556;28;21156;-48
2023/04/24 12:13:37;;;;;;;0.50;0.50;;;19.40;55.20;;;;;;5177510;28;20529;-47
2023/04/24 12:16:08;;;;;;;10.50;1.17;;;19.10;55.60;;;;;;5175346;28;20501;-47
2023/04/24 12:18:43;;;;;;;0.77;0.77;;;19.00;56.60;;;;;;5182261;28;20208;-47
2023/04/24 12:21:18;;;;;;;1.07;0.97;;;18.90;56.40;;;;;;5178219;28;20566;-47
2023/04/24 12:23:49;;;;;;;0.80;0.80;;;18.60;58.20;;;;;;5178186;28;20450;-47
2023/04/24 12:26:21;;;;;;;0.77;0.77;;;18.20;60.10;;;;;;5177793;28;20446;-46
2023/04/24 12:28:51;;;;;;;0.73;0.73;;;18.10;62.00;;;;;;5183025;28;20708;-46
2023/04/24 12:31:22;;;;;;;3.03;0.70;;;18.30;62.80;;;;;;5182040;28;20493;-47
2023/04/24 12:33:52;;;;;;;1.00;1.00;;;18.30;63.80;;;;;;5184247;28;20180;-47
2023/04/24 12:36:23;;;;;;;1.17;1.07;;;18.30;63.20;;;;;;5179015;28;20185;-47
2023/04/24 12:38:54;;;;;;;0.90;0.90;;;18.60;63.80;;;;;;5178055;28;20208;-48
2023/04/24 12:41:24;;;;;;;1.50;0.90;;;18.70;62.30;;;;;;5180228;28;20270;-47
2023/04/24 12:43:55;;;;;;;0.70;0.70;;;19.10;60.30;;;;;;5177270;28;20226;-47
2023/04/24 12:46:26;;;;;;;1.70;0.90;;;19.40;55.50;;;;;;5177541;28;20684;-46
2023/04/24 12:48:58;;;;;;;1.73;0.80;;;19.30;53.70;;;;;;5177077;28;20730;-46
2023/04/24 12:51:28;;;;;;;1.10;0.63;;;19.50;53.20;;;;;;5177176;28;20576;-46
2023/04/24 12:53:59;;;;;;;1.50;0.63;;;19.80;47.40;;;;;;5180116;28;20446;-47
2023/04/24 12:56:30;;;;;;;0.53;0.53;;;20.00;45.80;;;;;;5177222;28;20196;-47
2023/04/24 12:59:01;;;;;;;1.53;0.80;;;20.30;44.80;;;;;;5184341;28;20223;-49
2023/04/24 13:01:31;;;;;;;0.80;0.80;;;20.60;43.10;;;;;;5177251;28;20443;-47
2023/04/24 13:04:02;;;;;;;1.00;1.00;;;20.70;41.50;;;;;;5176929;28;20191;-47
2023/04/24 13:06:32;;;;;;;2.17;0.80;;;20.80;40.60;;;;;;5178752;28;20184;-45
2023/04/24 13:09:03;;;;;;;0.77;0.40;;;20.90;40.60;;;;;;5179562;28;20266;-48